Time;durP1;ratioP1;P1;durP2;ratioP2;P2;SDS_P1;SDS_P2;PMS_P1;PMS_P2;Temp;Humidity;BMP_temperature;BMP_pressure;BME280_temperature;BME280_humidity;BME280_pressure;Samples;Min_cycle;Max_cycle;Signal;HPM_P1;HPM_P2
2023/07/20 00:00:41;;;;;;;2.23;1.50;;;24.20;84.60;;;;;;5039902;28;20462;-55
2023/07/20 00:03:12;;;;;;;2.00;1.90;;;24.20;84.60;;;;;;5043850;28;20904;-53
2023/07/20 00:05:40;;;;;;;1.70;1.40;;;24.20;84.60;;;;;;5041563;28;20477;-58
2023/07/20 00:08:07;;;;;;;1.47;1.17;;;24.10;84.50;;;;;;5038099;28;20469;-59
2023/07/20 00:10:34;;;;;;;1.33;1.10;;;24.10;84.60;;;;;;5041775;28;20462;-54
2023/07/20 00:13:00;;;;;;;1.33;1.23;;;24.10;84.50;;;;;;5043589;28;20465;-51
2023/07/20 00:15:27;;;;;;;2.37;1.47;;;24.10;84.50;;;;;;5037213;28;20466;-61
2023/07/20 00:17:54;;;;;;;2.50;1.50;;;24.10;84.60;;;;;;5038964;28;20845;-57
2023/07/20 00:20:20;;;;;;;1.60;1.00;;;24.10;84.50;;;;;;5037442;28;20462;-58
2023/07/20 00:22:50;;;;;;;1.97;1.53;;;24.10;84.60;;;;;;5035440;28;20468;-63
2023/07/20 00:25:17;;;;;;;1.40;1.20;;;24.10;84.70;;;;;;5034604;28;20556;-58
2023/07/20 00:27:44;;;;;;;1.30;1.20;;;24.00;84.60;;;;;;5033828;28;20493;-57
2023/07/20 00:30:12;;;;;;;1.33;1.10;;;24.00;84.60;;;;;;5039336;28;20481;-60
2023/07/20 00:32:39;;;;;;;1.40;1.30;;;24.00;84.60;;;;;;5043697;28;20611;-60
2023/07/20 00:35:06;;;;;;;2.27;1.20;;;24.00;84.60;;;;;;5043929;28;20836;-59
2023/07/20 00:37:33;;;;;;;1.67;1.57;;;24.00;84.70;;;;;;5044085;28;20838;-57
2023/07/20 00:40:04;;;;;;;2.60;1.53;;;24.00;84.70;;;;;;5040246;28;20458;-61
2023/07/20 00:42:30;;;;;;;1.60;1.40;;;24.00;84.50;;;;;;5035852;28;20462;-58
2023/07/20 00:44:57;;;;;;;1.60;1.50;;;24.00;84.60;;;;;;5035225;28;20461;-59
2023/07/20 00:47:24;;;;;;;1.70;1.30;;;24.00;84.60;;;;;;5050705;28;20457;-56
2023/07/20 00:49:52;;;;;;;1.87;1.17;;;24.00;84.70;;;;;;5044048;28;20461;-57
2023/07/20 00:52:21;;;;;;;1.27;1.13;;;24.00;84.70;;;;;;5035068;28;20490;-56
2023/07/20 00:54:48;;;;;;;1.33;1.23;;;24.00;84.60;;;;;;5036227;28;20470;-63
2023/07/20 00:57:18;;;;;;;1.83;1.53;;;24.00;84.70;;;;;;5038098;28;20485;-54
2023/07/20 00:59:45;;;;;;;1.30;1.10;;;23.90;84.50;;;;;;5038699;28;20829;-52
2023/07/20 01:02:11;;;;;;;1.47;1.37;;;24.00;84.70;;;;;;5038633;28;20963;-58
2023/07/20 01:04:38;;;;;;;1.37;1.27;;;23.90;84.50;;;;;;5033006;28;20465;-59
2023/07/20 01:07:13;;;;;;;1.50;1.40;;;23.90;84.50;;;;;;5044293;28;20953;-61
2023/07/20 01:09:44;;;;;;;1.20;1.10;;;23.90;84.60;;;;;;5041441;28;20460;-57
2023/07/20 01:12:19;;;;;;;1.47;1.37;;;23.90;84.50;;;;;;5049596;28;20468;-54
2023/07/20 01:14:46;;;;;;;2.17;1.70;;;23.90;84.60;;;;;;5043950;28;20488;-58
2023/07/20 01:17:13;;;;;;;2.33;1.20;;;23.90;84.70;;;;;;5047631;28;20568;-57
2023/07/20 01:19:40;;;;;;;1.40;1.20;;;23.90;84.70;;;;;;5047915;28;20973;-50
2023/07/20 01:22:17;;;;;;;1.50;1.37;;;23.90;84.60;;;;;;5051772;28;20457;-55
2023/07/20 01:25:05;;;;;;;1.67;1.40;;;23.90;84.60;;;;;;5047159;28;20465;-57
2023/07/20 01:28:11;;;;;;;1.80;1.40;;;23.90;84.60;;;;;;5044909;28;20462;-51
2023/07/20 01:30:56;;;;;;;1.63;1.53;;;23.90;84.70;;;;;;5040722;28;20457;-57
2023/07/20 01:33:26;;;;;;;1.57;1.43;;;23.90;84.70;;;;;;5046681;28;20461;-52
2023/07/20 01:35:57;;;;;;;1.53;1.20;;;23.90;84.70;;;;;;5049374;28;20530;-49
2023/07/20 01:38:25;;;;;;;1.30;1.20;;;23.90;84.70;;;;;;5047238;28;20834;-59
2023/07/20 01:40:52;;;;;;;1.20;1.10;;;23.90;84.60;;;;;;5041065;28;20468;-56
2023/07/20 01:43:19;;;;;;;1.67;1.50;;;23.80;84.60;;;;;;5042397;28;20468;-52
2023/07/20 01:45:46;;;;;;;1.40;1.10;;;23.90;84.60;;;;;;5044189;28;20465;-61
2023/07/20 01:48:13;;;;;;;1.30;1.20;;;23.80;84.60;;;;;;5060605;28;20987;-61
2023/07/20 01:50:41;;;;;;;1.50;1.40;;;23.80;84.60;;;;;;5044608;28;20462;-57
2023/07/20 01:53:08;;;;;;;1.43;1.20;;;23.80;84.60;;;;;;5040344;28;20454;-60
2023/07/20 01:55:34;;;;;;;1.53;1.10;;;23.80;84.60;;;;;;5034902;28;20462;-55
2023/07/20 01:58:01;;;;;;;1.20;1.10;;;23.80;84.60;;;;;;5036826;28;21031;-57
2023/07/20 02:00:28;;;;;;;1.17;1.00;;;23.80;84.60;;;;;;5033229;28;20453;-62
2023/07/20 02:02:55;;;;;;;1.00;0.90;;;23.80;84.60;;;;;;5037457;28;20572;-58
2023/07/20 02:05:22;;;;;;;1.30;1.20;;;23.80;84.70;;;;;;5034490;28;21074;-49
2023/07/20 02:07:50;;;;;;;1.40;1.30;;;23.80;84.70;;;;;;5035165;28;20469;-55
2023/07/20 02:10:17;;;;;;;2.13;1.30;;;23.80;84.80;;;;;;5036591;28;20460;-58
2023/07/20 02:12:43;;;;;;;1.20;1.00;;;23.80;84.70;;;;;;5037981;28;20896;-54
2023/07/20 02:15:13;;;;;;;1.43;1.20;;;23.80;84.80;;;;;;5032759;28;20454;-55
2023/07/20 02:17:40;;;;;;;1.50;1.40;;;23.80;84.80;;;;;;5033600;28;21007;-52
2023/07/20 02:20:09;;;;;;;2.00;1.30;;;23.80;84.80;;;;;;5034573;28;20468;-51
2023/07/20 02:22:36;;;;;;;1.27;1.17;;;23.80;84.80;;;;;;5032717;28;21148;-57
2023/07/20 02:25:05;;;;;;;1.77;1.20;;;23.80;84.80;;;;;;5032659;28;20452;-52
2023/07/20 02:27:32;;;;;;;1.70;1.60;;;23.70;84.70;;;;;;5035342;28;20497;-54
2023/07/20 02:29:59;;;;;;;1.50;1.23;;;23.70;84.70;;;;;;5041078;28;20826;-52
2023/07/20 02:32:25;;;;;;;1.33;1.23;;;23.70;84.70;;;;;;5040482;28;20488;-54
2023/07/20 02:34:52;;;;;;;1.30;1.20;;;23.70;84.90;;;;;;5037436;28;20499;-52
2023/07/20 02:37:19;;;;;;;1.50;1.40;;;23.70;84.70;;;;;;5031525;28;20481;-51
2023/07/20 02:39:46;;;;;;;1.23;1.00;;;23.70;84.80;;;;;;5034623;28;20963;-51
2023/07/20 02:42:14;;;;;;;1.10;1.00;;;23.70;84.90;;;;;;5036785;28;20457;-58
2023/07/20 02:44:43;;;;;;;1.43;1.10;;;23.70;84.90;;;;;;5028781;28;21119;-57
2023/07/20 02:47:10;;;;;;;1.60;1.50;;;23.70;85.00;;;;;;5038407;28;20465;-55
2023/07/20 02:49:36;;;;;;;1.40;1.30;;;23.70;85.00;;;;;;5044619;28;20988;-59
2023/07/20 02:52:03;;;;;;;2.40;1.30;;;23.70;84.90;;;;;;5035300;28;20458;-53
2023/07/20 02:54:31;;;;;;;1.30;1.13;;;23.70;85.00;;;;;;5039482;28;20480;-52
2023/07/20 02:56:57;;;;;;;1.20;1.10;;;23.70;85.00;;;;;;5039207;28;20594;-50
2023/07/20 02:59:25;;;;;;;1.97;1.03;;;23.70;85.10;;;;;;5035369;28;20460;-54
2023/07/20 03:01:52;;;;;;;1.40;1.30;;;23.70;85.00;;;;;;5036783;28;20531;-57
2023/07/20 03:04:19;;;;;;;1.47;1.27;;;23.70;85.10;;;;;;5035761;28;20576;-56
2023/07/20 03:06:46;;;;;;;1.60;1.47;;;23.60;84.90;;;;;;5034194;28;20474;-56
2023/07/20 03:09:13;;;;;;;1.10;0.93;;;23.60;85.00;;;;;;5035374;28;20464;-54
2023/07/20 03:11:39;;;;;;;1.40;1.27;;;23.60;85.00;;;;;;5036642;28;21059;-53
2023/07/20 03:14:06;;;;;;;1.80;1.50;;;23.60;84.90;;;;;;5037400;28;20499;-57
2023/07/20 03:16:34;;;;;;;1.43;1.07;;;23.60;85.00;;;;;;5039300;28;20472;-55
2023/07/20 03:19:01;;;;;;;1.10;1.00;;;23.60;85.00;;;;;;5034968;28;20465;-63
2023/07/20 03:21:28;;;;;;;1.23;1.00;;;23.60;84.90;;;;;;5035061;28;20947;-59
2023/07/20 03:23:55;;;;;;;1.30;1.00;;;23.60;84.90;;;;;;5036568;28;20512;-54
2023/07/20 03:26:22;;;;;;;1.70;1.20;;;23.60;84.90;;;;;;5037642;28;20464;-55
2023/07/20 03:28:49;;;;;;;3.83;1.00;;;23.60;84.90;;;;;;5046752;28;20495;-53
2023/07/20 03:31:16;;;;;;;1.53;1.27;;;23.60;84.90;;;;;;5049035;28;20864;-57
2023/07/20 03:33:44;;;;;;;1.30;1.20;;;23.60;84.90;;;;;;5047661;28;20469;-51
2023/07/20 03:36:11;;;;;;;1.50;1.30;;;23.60;85.00;;;;;;5045659;28;20496;-50
2023/07/20 03:38:37;;;;;;;1.47;1.20;;;23.60;85.00;;;;;;5042192;28;20806;-52
2023/07/20 03:41:04;;;;;;;1.90;1.20;;;23.60;85.10;;;;;;5039612;28;20457;-56
2023/07/20 03:43:31;;;;;;;1.27;1.17;;;23.60;85.00;;;;;;5041465;28;20465;-53
2023/07/20 03:45:57;;;;;;;1.50;1.40;;;23.60;85.00;;;;;;5038886;28;21677;-54
2023/07/20 03:48:25;;;;;;;1.60;1.33;;;23.60;85.00;;;;;;5041483;28;21364;-57
2023/07/20 03:50:54;;;;;;;1.83;1.40;;;23.60;85.00;;;;;;5038737;28;20449;-52
2023/07/20 03:53:21;;;;;;;1.73;1.17;;;23.60;85.30;;;;;;5042109;28;20484;-53
2023/07/20 03:55:48;;;;;;;1.23;1.10;;;23.60;85.10;;;;;;5042276;28;20466;-55
2023/07/20 03:58:15;;;;;;;2.17;1.40;;;23.60;85.10;;;;;;5042705;28;21026;-49
2023/07/20 04:00:45;;;;;;;2.47;1.40;;;23.60;85.30;;;;;;5041499;28;20608;-53
2023/07/20 04:03:12;;;;;;;1.20;1.10;;;23.60;85.10;;;;;;5041386;28;20894;-57
2023/07/20 04:05:39;;;;;;;1.53;1.30;;;23.60;85.10;;;;;;5043171;28;21239;-54
2023/07/20 04:08:07;;;;;;;1.47;1.37;;;23.60;86.00;;;;;;5053765;28;20824;-56
2023/07/20 04:10:33;;;;;;;1.50;1.00;;;23.50;85.20;;;;;;5049836;28;20477;-53
2023/07/20 04:13:01;;;;;;;1.70;1.47;;;23.50;85.10;;;;;;5054907;28;20441;-64
2023/07/20 04:15:27;;;;;;;1.37;1.27;;;23.50;85.20;;;;;;5040036;28;20474;-55
2023/07/20 04:17:56;;;;;;;1.80;1.03;;;23.50;86.10;;;;;;5037682;28;20500;-51
2023/07/20 04:20:23;;;;;;;1.57;1.10;;;23.50;85.20;;;;;;5040369;28;20552;-52
2023/07/20 04:22:49;;;;;;;1.30;1.17;;;23.50;85.30;;;;;;5034791;28;20466;-56
2023/07/20 04:25:18;;;;;;;1.40;1.23;;;23.50;85.30;;;;;;5037617;28;21187;-53
2023/07/20 04:27:45;;;;;;;1.40;1.30;;;23.50;85.40;;;;;;5034198;28;20787;-57
2023/07/20 04:30:12;;;;;;;1.63;1.40;;;23.50;85.30;;;;;;5043877;28;20462;-60
2023/07/20 04:32:46;;;;;;;1.23;1.13;;;23.50;85.30;;;;;;5045779;28;20540;-59
2023/07/20 04:35:19;;;;;;;1.50;1.30;;;23.50;85.30;;;;;;5038851;28;20492;-55
2023/07/20 04:37:46;;;;;;;2.20;1.47;;;23.50;85.20;;;;;;5035954;28;20478;-57
2023/07/20 04:40:13;;;;;;;3.47;1.97;;;23.50;85.50;;;;;;5036235;28;20544;-55
2023/07/20 04:42:41;;;;;;;1.60;1.50;;;23.50;85.50;;;;;;5038952;28;20465;-54
2023/07/20 04:45:09;;;;;;;1.20;1.10;;;23.50;85.50;;;;;;5034473;28;20492;-52
2023/07/20 04:47:36;;;;;;;1.47;1.37;;;23.50;85.50;;;;;;5030878;28;20964;-51
2023/07/20 04:50:03;;;;;;;1.60;1.10;;;23.50;85.50;;;;;;5033796;28;20460;-53
2023/07/20 04:52:29;;;;;;;1.57;1.23;;;23.50;85.50;;;;;;5032939;28;20573;-48
2023/07/20 04:54:56;;;;;;;1.30;1.20;;;23.50;85.40;;;;;;5033080;28;21420;-53
2023/07/20 04:57:25;;;;;;;2.83;1.60;;;23.50;85.50;;;;;;5032409;28;21085;-50
2023/07/20 04:59:53;;;;;;;1.73;1.60;;;23.50;85.50;;;;;;5035780;28;20966;-51
2023/07/20 05:02:19;;;;;;;1.87;1.10;;;23.50;85.60;;;;;;5034766;28;20462;-57
2023/07/20 05:04:46;;;;;;;2.20;1.33;;;23.50;85.70;;;;;;5034446;28;20476;-58
2023/07/20 05:07:13;;;;;;;1.40;1.20;;;23.50;85.60;;;;;;5032926;28;20464;-59
2023/07/20 05:09:40;;;;;;;1.50;1.40;;;23.50;85.70;;;;;;5034324;28;20454;-50
2023/07/20 05:12:07;;;;;;;2.13;1.27;;;23.50;85.60;;;;;;5032873;28;20471;-59
2023/07/20 05:14:34;;;;;;;2.73;1.53;;;23.40;85.60;;;;;;5028330;28;20459;-57
2023/07/20 05:17:02;;;;;;;1.40;1.30;;;23.40;85.60;;;;;;5029224;28;21105;-51
2023/07/20 05:19:29;;;;;;;2.33;1.30;;;23.40;85.80;;;;;;5031713;28;20891;-62
2023/07/20 05:21:55;;;;;;;1.50;1.40;;;23.40;85.90;;;;;;5037424;28;20461;-51
2023/07/20 05:24:22;;;;;;;1.63;1.40;;;23.40;85.90;;;;;;5039916;28;20513;-59
2023/07/20 05:26:49;;;;;;;4.40;1.60;;;23.50;85.90;;;;;;5032417;28;20474;-52
2023/07/20 05:29:16;;;;;;;2.33;2.13;;;23.40;85.90;;;;;;5035915;28;20465;-54
2023/07/20 05:31:41;;;;;;;4.97;2.10;;;23.40;86.20;;;;;;5038243;28;20542;-54
2023/07/20 05:34:09;;;;;;;1.80;1.50;;;23.40;86.20;;;;;;5044538;28;20442;-58
2023/07/20 05:36:36;;;;;;;4.43;1.90;;;23.50;87.10;;;;;;5032973;28;20210;-57
2023/07/20 05:39:03;;;;;;;2.93;1.40;;;23.40;87.10;;;;;;5035299;28;20553;-56
2023/07/20 05:41:30;;;;;;;5.33;1.87;;;23.40;87.20;;;;;;5040318;28;20555;-62
2023/07/20 05:43:57;;;;;;;3.57;1.77;;;23.40;87.50;;;;;;5039616;28;20469;-54
2023/07/20 05:46:24;;;;;;;6.93;2.70;;;23.40;87.80;;;;;;5036039;28;20469;-54
2023/07/20 05:48:51;;;;;;;4.77;2.83;;;23.40;87.90;;;;;;5042424;28;20569;-58
2023/07/20 05:51:19;;;;;;;3.47;3.07;;;23.40;88.40;;;;;;5041862;28;20470;-56
2023/07/20 05:53:45;;;;;;;4.20;3.80;;;23.40;88.30;;;;;;5041375;28;20462;-60
2023/07/20 05:56:14;;;;;;;8.10;4.30;;;23.40;89.10;;;;;;5042046;28;21209;-55
2023/07/20 05:58:41;;;;;;;5.17;3.50;;;23.40;89.10;;;;;;5043177;28;20701;-57
2023/07/20 06:01:08;;;;;;;3.87;3.43;;;23.40;89.10;;;;;;5042152;28;20457;-59
2023/07/20 06:03:34;;;;;;;4.10;3.70;;;23.40;89.00;;;;;;5042600;28;20906;-62
2023/07/20 06:06:01;;;;;;;4.27;3.87;;;23.40;89.20;;;;;;5046400;28;20547;-59
2023/07/20 06:08:30;;;;;;;4.83;3.70;;;23.40;88.80;;;;;;5044667;28;20473;-53
2023/07/20 06:10:56;;;;;;;3.70;3.40;;;23.40;89.00;;;;;;5040446;28;20531;-65
2023/07/20 06:13:24;;;;;;;5.07;4.57;;;23.30;89.40;;;;;;5037552;28;20477;-57
2023/07/20 06:15:50;;;;;;;4.50;3.67;;;23.40;89.00;;;;;;5035233;28;20555;-54
2023/07/20 06:18:17;;;;;;;3.73;3.43;;;23.30;89.40;;;;;;5033736;28;20485;-57
2023/07/20 06:20:49;;;;;;;3.67;2.87;;;23.40;90.10;;;;;;5038684;28;20459;-52
2023/07/20 06:23:15;;;;;;;3.87;2.57;;;23.40;90.00;;;;;;5039278;28;20459;-50
2023/07/20 06:25:43;;;;;;;3.07;2.87;;;23.40;89.90;;;;;;5042219;28;20984;-56
2023/07/20 06:28:10;;;;;;;3.47;3.17;;;23.40;89.60;;;;;;5045707;28;20461;-51
2023/07/20 06:30:37;;;;;;;2.50;2.23;;;23.40;89.70;;;;;;5042188;28;20461;-53
2023/07/20 06:33:04;;;;;;;4.70;2.97;;;23.40;89.90;;;;;;5039799;28;21051;-54
2023/07/20 06:35:30;;;;;;;4.90;2.93;;;23.40;89.90;;;;;;5041887;28;20573;-52
2023/07/20 06:37:57;;;;;;;6.80;2.87;;;23.40;90.00;;;;;;5039517;28;21092;-57
2023/07/20 06:40:24;;;;;;;2.70;2.50;;;23.40;90.00;;;;;;5048769;28;20464;-48
2023/07/20 06:42:52;;;;;;;4.60;2.80;;;23.40;89.90;;;;;;5038786;28;20466;-50
2023/07/20 06:45:18;;;;;;;3.10;2.80;;;23.40;90.00;;;;;;5037742;28;20461;-55
2023/07/20 06:47:46;;;;;;;3.47;2.80;;;23.40;90.00;;;;;;5038824;28;21035;-48
2023/07/20 06:50:13;;;;;;;5.20;2.10;;;23.40;90.00;;;;;;5040597;28;20454;-49
2023/07/20 06:52:40;;;;;;;2.90;2.70;;;23.40;90.00;;;;;;5038192;28;20469;-50
2023/07/20 06:55:08;;;;;;;3.00;2.40;;;23.40;90.10;;;;;;5045844;28;20540;-56
2023/07/20 06:57:36;;;;;;;3.13;2.83;;;23.40;90.10;;;;;;5037207;28;20467;-52
2023/07/20 07:00:05;;;;;;;3.50;2.40;;;23.40;90.10;;;;;;5038172;28;20465;-49
2023/07/20 07:02:31;;;;;;;6.20;2.90;;;23.40;90.10;;;;;;5035746;28;20541;-55
2023/07/20 07:04:58;;;;;;;3.53;2.10;;;23.40;90.20;;;;;;5039036;28;20557;-57
2023/07/20 07:07:25;;;;;;;4.63;3.23;;;23.40;90.10;;;;;;5036991;28;21028;-52
2023/07/20 07:09:52;;;;;;;2.50;2.30;;;23.40;90.10;;;;;;5039763;28;20460;-52
2023/07/20 07:12:18;;;;;;;2.93;2.73;;;23.40;90.20;;;;;;5042352;28;20471;-52
2023/07/20 07:14:45;;;;;;;2.93;2.73;;;23.40;90.10;;;;;;5042013;28;20482;-55
2023/07/20 07:17:14;;;;;;;3.40;2.53;;;23.40;90.20;;;;;;5042853;28;20469;-53
2023/07/20 07:19:42;;;;;;;2.13;1.80;;;23.40;89.60;;;;;;5040633;28;20581;-59
2023/07/20 07:22:08;;;;;;;2.10;2.00;;;23.40;89.20;;;;;;5041774;28;20604;-56
2023/07/20 07:24:35;;;;;;;2.27;2.07;;;23.40;89.20;;;;;;5041720;28;20469;-56
2023/07/20 07:27:03;;;;;;;2.00;1.90;;;23.40;89.60;;;;;;5039272;28;20479;-52
2023/07/20 07:29:30;;;;;;;2.50;2.27;;;23.40;89.60;;;;;;5039159;28;20545;-53
2023/07/20 07:31:57;;;;;;;1.97;1.87;;;23.40;89.80;;;;;;5041083;28;20996;-54
2023/07/20 07:34:26;;;;;;;3.10;2.40;;;23.40;89.90;;;;;;5041291;28;20466;-56
2023/07/20 07:36:53;;;;;;;2.47;2.27;;;23.40;90.00;;;;;;5043927;28;21118;-49
2023/07/20 07:39:20;;;;;;;2.37;2.17;;;23.40;89.80;;;;;;5042627;28;21521;-49
2023/07/20 07:41:47;;;;;;;2.23;2.03;;;23.40;89.80;;;;;;5043021;28;20464;-52
2023/07/20 07:44:13;;;;;;;6.60;2.47;;;23.40;89.50;;;;;;5045360;28;20829;-54
2023/07/20 07:46:41;;;;;;;2.53;2.20;;;23.40;89.30;;;;;;5045217;28;20469;-51
2023/07/20 07:49:08;;;;;;;4.07;2.20;;;23.40;89.30;;;;;;5045145;28;20465;-53
2023/07/20 07:51:36;;;;;;;2.30;2.10;;;23.40;89.30;;;;;;5044891;28;20461;-48
2023/07/20 07:54:03;;;;;;;1.73;1.63;;;23.40;89.20;;;;;;5046074;28;20668;-54
2023/07/20 07:56:29;;;;;;;2.90;2.33;;;23.40;89.50;;;;;;5045027;28;20514;-60
2023/07/20 07:58:56;;;;;;;4.83;1.90;;;23.40;89.30;;;;;;5044168;28;20845;-51
2023/07/20 08:01:23;;;;;;;3.13;2.10;;;23.40;90.00;;;;;;5041388;28;20462;-54
2023/07/20 08:03:50;;;;;;;2.10;2.00;;;23.40;89.30;;;;;;5044285;28;21050;-53
2023/07/20 08:06:17;;;;;;;2.37;1.60;;;23.40;89.10;;;;;;5044380;28;20468;-56
2023/07/20 08:08:45;;;;;;;2.67;2.10;;;23.40;88.80;;;;;;5044692;28;20559;-57
2023/07/20 08:11:12;;;;;;;2.13;1.90;;;23.40;88.70;;;;;;5045038;28;20462;-51
2023/07/20 08:13:39;;;;;;;3.03;1.60;;;23.40;88.90;;;;;;5034803;28;20943;-60
2023/07/20 08:16:06;;;;;;;2.63;1.50;;;23.40;88.60;;;;;;5042514;28;20509;-60
2023/07/20 08:18:33;;;;;;;1.90;1.30;;;23.40;88.10;;;;;;5041457;28;20465;-62
2023/07/20 08:20:59;;;;;;;2.60;1.27;;;23.40;88.00;;;;;;5040205;28;21008;-67
2023/07/20 08:23:27;;;;;;;2.10;1.60;;;23.40;87.70;;;;;;5041128;28;20468;-64
2023/07/20 08:25:55;;;;;;;1.63;1.53;;;23.40;87.70;;;;;;5039711;28;20464;-64
2023/07/20 08:28:22;;;;;;;2.00;1.33;;;23.40;87.20;;;;;;5040783;28;20468;-65
2023/07/20 08:30:49;;;;;;;1.37;1.00;;;23.40;87.00;;;;;;5044819;28;20465;-61
2023/07/20 08:33:19;;;;;;;1.53;1.20;;;23.30;86.50;;;;;;5049852;28;20449;-63
2023/07/20 08:35:46;;;;;;;1.23;1.10;;;23.30;86.50;;;;;;5047270;28;20486;-55
2023/07/20 08:38:13;;;;;;;1.30;1.10;;;23.30;86.40;;;;;;5047959;28;20465;-53
2023/07/20 08:40:42;;;;;;;1.47;1.00;;;23.40;86.10;;;;;;5051706;28;20474;-58
2023/07/20 08:43:11;;;;;;;1.30;0.90;;;23.40;85.70;;;;;;5048026;28;20460;-54
2023/07/20 08:45:40;;;;;;;3.53;0.80;;;23.40;84.50;;;;;;5044623;28;20928;-57
2023/07/20 08:48:08;;;;;;;1.30;0.90;;;23.40;83.40;;;;;;5046080;28;20477;-67
2023/07/20 08:50:35;;;;;;;1.40;1.10;;;23.40;82.80;;;;;;5045082;28;20469;-64
2023/07/20 08:53:03;;;;;;;1.97;1.07;;;23.40;82.60;;;;;;5045264;28;20712;-64
2023/07/20 08:55:31;;;;;;;1.97;1.00;;;23.40;82.20;;;;;;5046629;28;20462;-63
2023/07/20 08:57:59;;;;;;;1.40;1.00;;;23.40;81.50;;;;;;5046102;28;20469;-65
2023/07/20 09:00:29;;;;;;;1.07;0.97;;;23.40;81.20;;;;;;5039309;28;21181;-58
2023/07/20 09:02:56;;;;;;;1.63;1.30;;;23.40;81.10;;;;;;5040809;28;20953;-64
2023/07/20 09:05:24;;;;;;;0.97;0.80;;;23.40;81.20;;;;;;5043440;28;20461;-58
2023/07/20 09:07:52;;;;;;;2.33;1.30;;;23.40;81.30;;;;;;5043041;28;20453;-60
2023/07/20 09:10:20;;;;;;;1.60;1.00;;;23.50;82.00;;;;;;5053961;28;20465;-65
2023/07/20 09:12:47;;;;;;;1.40;1.00;;;23.50;82.10;;;;;;5054424;28;20802;-68
2023/07/20 09:15:14;;;;;;;2.40;1.23;;;23.60;82.30;;;;;;5041639;28;20500;-59
2023/07/20 09:17:47;;;;;;;2.03;0.97;;;23.60;82.50;;;;;;5043437;28;20470;-62
2023/07/20 09:20:16;;;;;;;1.07;0.90;;;23.60;82.60;;;;;;5042963;28;20907;-60
2023/07/20 09:22:43;;;;;;;2.23;1.00;;;23.70;82.90;;;;;;5041446;28;21143;-64
2023/07/20 09:25:14;;;;;;;1.10;0.90;;;23.70;83.60;;;;;;5043095;28;20450;-64
2023/07/20 09:27:43;;;;;;;1.40;0.93;;;23.70;82.80;;;;;;5042730;28;20523;-63
2023/07/20 09:30:13;;;;;;;2.43;1.10;;;23.80;82.90;;;;;;5041492;28;20458;-64
2023/07/20 09:32:43;;;;;;;1.97;1.07;;;23.80;82.90;;;;;;5036569;28;20954;-56
2023/07/20 09:35:14;;;;;;;1.20;0.90;;;23.80;82.90;;;;;;5039873;28;20495;-61
2023/07/20 09:37:41;;;;;;;1.97;1.23;;;23.80;83.70;;;;;;5040629;28;20582;-58
2023/07/20 09:40:09;;;;;;;2.03;1.10;;;23.90;83.00;;;;;;5040471;28;21161;-56
2023/07/20 09:42:37;;;;;;;2.63;1.00;;;23.90;82.90;;;;;;5039396;28;20449;-59
2023/07/20 09:45:07;;;;;;;1.63;0.80;;;23.90;82.30;;;;;;5039974;28;20520;-58
2023/07/20 09:47:37;;;;;;;2.83;1.13;;;23.90;79.40;;;;;;5039446;28;20457;-56
2023/07/20 09:50:10;;;;;;;1.40;0.90;;;23.80;78.00;;;;;;5041223;28;20529;-70
2023/07/20 09:52:41;;;;;;;3.53;1.03;;;23.80;76.60;;;;;;5040833;28;20462;-66
2023/07/20 09:55:09;;;;;;;1.40;0.90;;;23.80;77.50;;;;;;5042124;28;20442;-57
2023/07/20 09:57:36;;;;;;;2.67;0.93;;;23.80;76.40;;;;;;5040543;28;20496;-60
2023/07/20 10:00:08;;;;;;;1.60;0.80;;;23.80;75.30;;;;;;5039576;28;20481;-62
2023/07/20 10:02:41;;;;;;;1.30;0.80;;;23.80;75.40;;;;;;5040699;28;20442;-54
2023/07/20 10:05:12;;;;;;;1.20;0.90;;;23.80;74.90;;;;;;5040809;28;20546;-59
2023/07/20 10:07:44;;;;;;;1.10;0.87;;;23.80;74.60;;;;;;5039596;28;20480;-60
2023/07/20 10:10:12;;;;;;;2.07;1.10;;;23.80;75.30;;;;;;5042216;28;20456;-66
2023/07/20 10:12:40;;;;;;;1.80;0.80;;;23.90;74.80;;;;;;5040087;28;20961;-63
2023/07/20 10:15:18;;;;;;;1.00;0.80;;;23.90;75.20;;;;;;5037508;28;20463;-68
2023/07/20 10:18:00;;;;;;;1.00;0.83;;;23.90;74.00;;;;;;5035507;28;20456;-66
2023/07/20 10:20:29;;;;;;;1.33;0.87;;;23.90;73.40;;;;;;5036478;28;20864;-60
2023/07/20 10:22:57;;;;;;;1.37;0.70;;;23.90;73.80;;;;;;5040159;28;20458;-67
2023/07/20 10:25:25;;;;;;;1.40;1.00;;;23.90;73.30;;;;;;5041689;28;20454;-63
2023/07/20 10:27:52;;;;;;;2.70;1.33;;;23.90;74.30;;;;;;5040980;28;20560;-63
2023/07/20 10:30:20;;;;;;;1.10;0.80;;;23.90;74.40;;;;;;5038109;28;20468;-62
2023/07/20 10:32:47;;;;;;;2.37;1.20;;;24.00;74.60;;;;;;5041606;28;20722;-62
2023/07/20 10:35:15;;;;;;;1.30;0.90;;;24.00;75.10;;;;;;5041375;28;20486;-63
2023/07/20 10:37:51;;;;;;;1.10;0.87;;;24.00;75.30;;;;;;5038413;28;20461;-59
2023/07/20 10:40:30;;;;;;;1.87;0.83;;;24.10;75.50;;;;;;5039074;28;20476;-62
2023/07/20 10:43:02;;;;;;;1.43;0.80;;;24.10;75.90;;;;;;5041859;28;20462;-63
2023/07/20 10:45:43;;;;;;;1.10;0.70;;;24.10;75.10;;;;;;5036264;28;21789;-61
2023/07/20 10:48:19;;;;;;;1.50;0.90;;;24.10;75.50;;;;;;5042267;28;20462;-61
2023/07/20 10:50:47;;;;;;;1.30;0.80;;;24.20;75.70;;;;;;5041306;28;20477;-61
2023/07/20 10:53:17;;;;;;;1.30;0.90;;;24.10;74.20;;;;;;5045398;28;20468;-60
2023/07/20 10:55:46;;;;;;;1.40;1.20;;;24.10;72.90;;;;;;5037628;28;20469;-63
2023/07/20 10:58:15;;;;;;;1.70;1.00;;;24.10;71.90;;;;;;5043681;28;20466;-59
2023/07/20 11:01:01;;;;;;;2.10;1.00;;;24.10;71.80;;;;;;5038361;28;20514;-53
2023/07/20 11:03:30;;;;;;;1.10;0.93;;;24.00;70.30;;;;;;5038208;28;20454;-63
2023/07/20 11:05:58;;;;;;;1.30;1.10;;;24.00;69.90;;;;;;5039093;28;21928;-60
2023/07/20 11:11:31;;;;;;;1.03;0.83;;;24.00;70.30;;;;;;5096924;27;21044;-63
2023/07/20 11:13:59;;;;;;;1.30;1.20;;;24.00;70.90;;;;;;5099118;27;21062;-62
2023/07/20 11:16:37;;;;;;;0.90;0.80;;;24.00;70.70;;;;;;5096465;27;20451;-59
2023/07/20 11:19:04;;;;;;;1.20;0.90;;;24.10;70.80;;;;;;5102988;27;20487;-61
2023/07/20 11:21:37;;;;;;;1.00;0.80;;;24.10;70.80;;;;;;5099476;27;20456;-64
2023/07/20 11:24:05;;;;;;;2.80;1.10;;;24.10;70.50;;;;;;5099171;27;20549;-63
2023/07/20 11:26:40;;;;;;;1.10;1.00;;;24.10;71.30;;;;;;5098059;27;20908;-62
2023/07/20 11:29:07;;;;;;;3.53;1.00;;;24.10;71.70;;;;;;5103171;27;20454;-64
2023/07/20 11:31:37;;;;;;;1.00;0.70;;;24.20;71.90;;;;;;5100736;27;20461;-63
2023/07/20 11:34:03;;;;;;;1.00;0.80;;;24.20;72.00;;;;;;5103434;27;20928;-61
2023/07/20 11:36:30;;;;;;;1.10;0.90;;;24.20;71.60;;;;;;5093780;28;20971;-60
2023/07/20 11:38:58;;;;;;;1.20;1.00;;;24.20;70.90;;;;;;5098741;28;20966;-60
2023/07/20 11:41:25;;;;;;;1.20;0.73;;;24.20;69.50;;;;;;5106574;28;20503;-62
2023/07/20 11:43:55;;;;;;;1.30;0.80;;;24.20;68.20;;;;;;5104634;27;20452;-64
2023/07/20 11:46:21;;;;;;;1.10;0.80;;;24.10;67.80;;;;;;5102787;28;20484;-65
2023/07/20 11:48:48;;;;;;;1.10;0.87;;;24.10;67.40;;;;;;5108212;28;20470;-66
2023/07/20 11:51:16;;;;;;;1.30;0.80;;;24.10;66.70;;;;;;5105394;28;20525;-64
2023/07/20 11:53:43;;;;;;;1.00;0.70;;;24.10;66.50;;;;;;5101756;28;20449;-62
2023/07/20 11:56:10;;;;;;;1.10;0.70;;;24.10;66.90;;;;;;5107816;28;20463;-64
2023/07/20 11:58:42;;;;;;;1.00;0.70;;;24.10;67.30;;;;;;5108501;28;20514;-58
2023/07/20 12:01:11;;;;;;;2.03;0.80;;;24.10;66.90;;;;;;5102998;28;20474;-59
2023/07/20 12:03:37;;;;;;;1.13;0.87;;;24.10;66.80;;;;;;5102233;28;20441;-62
2023/07/20 12:06:08;;;;;;;1.00;0.70;;;24.10;67.00;;;;;;5102486;28;20484;-62
2023/07/20 12:08:34;;;;;;;1.00;0.60;;;24.10;66.90;;;;;;5115644;27;20450;-58
2023/07/20 12:11:01;;;;;;;1.00;0.70;;;24.10;66.70;;;;;;5115082;27;20480;-67
2023/07/20 12:13:37;;;;;;;1.67;1.10;;;24.10;66.00;;;;;;5097265;28;20914;-60
2023/07/20 12:16:12;;;;;;;2.47;1.00;;;24.10;67.20;;;;;;5097458;28;20463;-65
2023/07/20 12:18:39;;;;;;;1.33;0.70;;;24.20;67.30;;;;;;5097345;27;20456;-63
2023/07/20 12:21:07;;;;;;;1.03;0.80;;;24.20;67.80;;;;;;5092535;27;20470;-63
2023/07/20 12:23:37;;;;;;;1.00;0.63;;;24.20;67.90;;;;;;5087795;28;20464;-70
2023/07/20 12:26:06;;;;;;;1.10;0.83;;;24.30;68.40;;;;;;5093051;28;20550;-63
2023/07/20 12:28:33;;;;;;;1.20;0.80;;;24.30;68.60;;;;;;5088409;28;20982;-64
2023/07/20 12:31:00;;;;;;;1.00;0.70;;;24.30;68.80;;;;;;5098395;28;20477;-61
2023/07/20 12:33:28;;;;;;;1.40;1.00;;;24.30;69.30;;;;;;5095989;28;20469;-59
2023/07/20 12:35:56;;;;;;;1.30;0.80;;;24.30;69.20;;;;;;5095943;28;20483;-63
2023/07/20 12:38:23;;;;;;;2.17;0.90;;;24.30;69.40;;;;;;5093296;28;20456;-63
2023/07/20 12:40:49;;;;;;;0.90;0.60;;;24.30;69.70;;;;;;5090218;28;20549;-60
2023/07/20 12:43:16;;;;;;;1.50;0.90;;;24.30;69.80;;;;;;5085581;28;20458;-62
2023/07/20 12:45:43;;;;;;;1.00;0.63;;;24.40;70.20;;;;;;5083231;28;20963;-62
2023/07/20 12:48:10;;;;;;;1.20;0.77;;;24.40;70.20;;;;;;5082888;28;20463;-62
2023/07/20 12:50:38;;;;;;;1.00;0.70;;;24.40;70.40;;;;;;5084170;28;20485;-66
2023/07/20 12:53:05;;;;;;;1.00;0.90;;;24.40;70.50;;;;;;5082735;28;20497;-61
2023/07/20 12:55:32;;;;;;;1.10;1.00;;;24.50;70.70;;;;;;5083504;28;20970;-62